sensor_id;sensor_type;location;lat;lon;timestamp;P1;durP1;ratioP1;P2;durP2;ratioP2
21501;SDS011;27639;48.674;9.242;2024-02-21T00:00:49;9.70;;;4.68;;
21501;SDS011;27639;48.674;9.242;2024-02-21T00:03:16;9.93;;;4.75;;
21501;SDS011;27639;48.674;9.242;2024-02-21T00:05:42;10.35;;;4.72;;
21501;SDS011;27639;48.674;9.242;2024-02-21T00:08:07;9.02;;;4.60;;
21501;SDS011;27639;48.674;9.242;2024-02-21T00:10:33;12.38;;;4.88;;
21501;SDS011;27639;48.674;9.242;2024-02-21T00:13:00;8.57;;;4.22;;
21501;SDS011;27639;48.674;9.242;2024-02-21T00:15:26;10.95;;;4.97;;
21501;SDS011;27639;48.674;9.242;2024-02-21T00:17:51;9.57;;;3.85;;
21501;SDS011;27639;48.674;9.242;2024-02-21T00:20:17;12.52;;;4.43;;
21501;SDS011;27639;48.674;9.242;2024-02-21T00:22:43;10.88;;;4.22;;
21501;SDS011;27639;48.674;9.242;2024-02-21T00:25:09;8.82;;;3.95;;
21501;SDS011;27639;48.674;9.242;2024-02-21T00:27:35;8.88;;;3.92;;
21501;SDS011;27639;48.674;9.242;2024-02-21T00:30:01;7.35;;;3.58;;
21501;SDS011;27639;48.674;9.242;2024-02-21T00:32:27;9.35;;;3.60;;
21501;SDS011;27639;48.674;9.242;2024-02-21T00:34:53;10.10;;;4.03;;
21501;SDS011;27639;48.674;9.242;2024-02-21T00:37:18;10.77;;;4.10;;
21501;SDS011;27639;48.674;9.242;2024-02-21T00:39:44;11.27;;;4.13;;
21501;SDS011;27639;48.674;9.242;2024-02-21T00:42:09;7.55;;;3.70;;
21501;SDS011;27639;48.674;9.242;2024-02-21T00:44:35;8.60;;;3.75;;
21501;SDS011;27639;48.674;9.242;2024-02-21T00:47:00;6.65;;;3.63;;
21501;SDS011;27639;48.674;9.242;2024-02-21T00:49:26;7.95;;;3.53;;
21501;SDS011;27639;48.674;9.242;2024-02-21T00:51:51;9.02;;;3.25;;
21501;SDS011;27639;48.674;9.242;2024-02-21T00:54:17;8.70;;;3.40;;
21501;SDS011;27639;48.674;9.242;2024-02-21T00:56:43;8.65;;;3.20;;
21501;SDS011;27639;48.674;9.242;2024-02-21T00:59:08;9.35;;;3.70;;
21501;SDS011;27639;48.674;9.242;2024-02-21T01:01:34;8.23;;;3.45;;
21501;SDS011;27639;48.674;9.242;2024-02-21T01:03:59;6.15;;;3.30;;
21501;SDS011;27639;48.674;9.242;2024-02-21T01:06:25;7.70;;;3.08;;
21501;SDS011;27639;48.674;9.242;2024-02-21T01:08:51;7.03;;;2.95;;
21501;SDS011;27639;48.674;9.242;2024-02-21T01:11:17;8.05;;;3.65;;
21501;SDS011;27639;48.674;9.242;2024-02-21T01:13:43;6.68;;;3.20;;
21501;SDS011;27639;48.674;9.242;2024-02-21T01:16:09;6.57;;;3.20;;
21501;SDS011;27639;48.674;9.242;2024-02-21T01:18:36;9.60;;;3.38;;
21501;SDS011;27639;48.674;9.242;2024-02-21T01:21:02;8.32;;;3.40;;
21501;SDS011;27639;48.674;9.242;2024-02-21T01:23:32;6.80;;;3.00;;
21501;SDS011;27639;48.674;9.242;2024-02-21T01:26:01;8.00;;;3.25;;
21501;SDS011;27639;48.674;9.242;2024-02-21T01:28:27;7.93;;;3.05;;
21501;SDS011;27639;48.674;9.242;2024-02-21T01:30:53;7.45;;;3.08;;
21501;SDS011;27639;48.674;9.242;2024-02-21T01:33:18;6.78;;;3.20;;
21501;SDS011;27639;48.674;9.242;2024-02-21T01:35:44;7.88;;;3.45;;
21501;SDS011;27639;48.674;9.242;2024-02-21T01:38:10;7.38;;;2.88;;
21501;SDS011;27639;48.674;9.242;2024-02-21T01:40:37;7.53;;;2.75;;
21501;SDS011;27639;48.674;9.242;2024-02-21T01:43:02;9.00;;;3.25;;
21501;SDS011;27639;48.674;9.242;2024-02-21T01:45:28;8.00;;;3.05;;
21501;SDS011;27639;48.674;9.242;2024-02-21T01:47:54;6.35;;;2.78;;
21501;SDS011;27639;48.674;9.242;2024-02-21T01:50:20;6.53;;;2.88;;
21501;SDS011;27639;48.674;9.242;2024-02-21T01:52:47;8.07;;;3.33;;
21501;SDS011;27639;48.674;9.242;2024-02-21T01:55:14;9.85;;;3.40;;
21501;SDS011;27639;48.674;9.242;2024-02-21T01:57:42;6.32;;;3.03;;
21501;SDS011;27639;48.674;9.242;2024-02-21T02:00:10;5.53;;;2.60;;
21501;SDS011;27639;48.674;9.242;2024-02-21T02:02:38;8.70;;;3.17;;
21501;SDS011;27639;48.674;9.242;2024-02-21T02:05:04;7.00;;;2.97;;
21501;SDS011;27639;48.674;9.242;2024-02-21T02:07:31;5.47;;;2.50;;
21501;SDS011;27639;48.674;9.242;2024-02-21T02:09:57;7.65;;;3.00;;
21501;SDS011;27639;48.674;9.242;2024-02-21T02:12:22;5.93;;;2.83;;
21501;SDS011;27639;48.674;9.242;2024-02-21T02:14:57;7.50;;;3.05;;
21501;SDS011;27639;48.674;9.242;2024-02-21T02:17:29;7.80;;;3.10;;
21501;SDS011;27639;48.674;9.242;2024-02-21T02:19:55;7.45;;;2.78;;
21501;SDS011;27639;48.674;9.242;2024-02-21T02:22:22;7.05;;;2.70;;
21501;SDS011;27639;48.674;9.242;2024-02-21T02:24:52;6.38;;;2.70;;
21501;SDS011;27639;48.674;9.242;2024-02-21T02:27:18;6.68;;;2.80;;
21501;SDS011;27639;48.674;9.242;2024-02-21T02:29:44;6.65;;;2.67;;
21501;SDS011;27639;48.674;9.242;2024-02-21T02:32:09;7.57;;;2.92;;
21501;SDS011;27639;48.674;9.242;2024-02-21T02:34:35;7.97;;;2.67;;
21501;SDS011;27639;48.674;9.242;2024-02-21T02:37:00;6.40;;;2.78;;
21501;SDS011;27639;48.674;9.242;2024-02-21T02:39:26;6.90;;;2.85;;
21501;SDS011;27639;48.674;9.242;2024-02-21T02:41:51;8.00;;;2.85;;
21501;SDS011;27639;48.674;9.242;2024-02-21T02:44:17;9.55;;;2.33;;
21501;SDS011;27639;48.674;9.242;2024-02-21T02:46:42;7.72;;;2.90;;
21501;SDS011;27639;48.674;9.242;2024-02-21T02:49:08;7.15;;;2.70;;
21501;SDS011;27639;48.674;9.242;2024-02-21T02:51:34;6.50;;;2.60;;
21501;SDS011;27639;48.674;9.242;2024-02-21T02:54:00;9.15;;;2.65;;
21501;SDS011;27639;48.674;9.242;2024-02-21T02:56:25;8.32;;;2.90;;
21501;SDS011;27639;48.674;9.242;2024-02-21T02:58:51;7.22;;;2.67;;
21501;SDS011;27639;48.674;9.242;2024-02-21T03:01:16;8.38;;;2.80;;
21501;SDS011;27639;48.674;9.242;2024-02-21T03:03:42;11.48;;;3.10;;
21501;SDS011;27639;48.674;9.242;2024-02-21T03:06:07;7.68;;;2.60;;
21501;SDS011;27639;48.674;9.242;2024-02-21T03:08:33;7.40;;;2.42;;
21501;SDS011;27639;48.674;9.242;2024-02-21T03:10:59;7.38;;;2.47;;
21501;SDS011;27639;48.674;9.242;2024-02-21T03:13:25;7.30;;;2.45;;
21501;SDS011;27639;48.674;9.242;2024-02-21T03:15:51;7.82;;;2.42;;
21501;SDS011;27639;48.674;9.242;2024-02-21T03:18:16;4.93;;;2.13;;
21501;SDS011;27639;48.674;9.242;2024-02-21T03:20:42;7.38;;;2.35;;
21501;SDS011;27639;48.674;9.242;2024-02-21T03:23:07;9.40;;;3.13;;
21501;SDS011;27639;48.674;9.242;2024-02-21T03:25:33;7.38;;;2.45;;
21501;SDS011;27639;48.674;9.242;2024-02-21T03:27:59;7.35;;;2.20;;
21501;SDS011;27639;48.674;9.242;2024-02-21T03:30:24;6.90;;;2.42;;
21501;SDS011;27639;48.674;9.242;2024-02-21T03:32:50;7.07;;;2.40;;
21501;SDS011;27639;48.674;9.242;2024-02-21T03:35:16;9.65;;;3.42;;
21501;SDS011;27639;48.674;9.242;2024-02-21T03:37:41;6.75;;;2.75;;
21501;SDS011;27639;48.674;9.242;2024-02-21T03:40:10;8.88;;;3.50;;
21501;SDS011;27639;48.674;9.242;2024-02-21T03:42:36;6.95;;;2.90;;
21501;SDS011;27639;48.674;9.242;2024-02-21T03:45:02;5.72;;;2.58;;
21501;SDS011;27639;48.674;9.242;2024-02-21T03:47:28;8.15;;;2.60;;
21501;SDS011;27639;48.674;9.242;2024-02-21T03:49:54;7.97;;;3.35;;
21501;SDS011;27639;48.674;9.242;2024-02-21T03:52:19;6.25;;;2.67;;
21501;SDS011;27639;48.674;9.242;2024-02-21T03:54:45;6.82;;;2.50;;
21501;SDS011;27639;48.674;9.242;2024-02-21T03:57:11;7.75;;;2.40;;
21501;SDS011;27639;48.674;9.242;2024-02-21T03:59:36;7.80;;;3.08;;
21501;SDS011;27639;48.674;9.242;2024-02-21T04:02:05;7.28;;;2.50;;
21501;SDS011;27639;48.674;9.242;2024-02-21T04:04:33;9.32;;;2.75;;
21501;SDS011;27639;48.674;9.242;2024-02-21T04:07:02;6.55;;;2.30;;
21501;SDS011;27639;48.674;9.242;2024-02-21T04:09:31;6.00;;;2.63;;
21501;SDS011;27639;48.674;9.242;2024-02-21T04:11:58;8.35;;;2.75;;
21501;SDS011;27639;48.674;9.242;2024-02-21T04:14:24;7.20;;;2.70;;
21501;SDS011;27639;48.674;9.242;2024-02-21T04:16:50;5.80;;;2.60;;
21501;SDS011;27639;48.674;9.242;2024-02-21T04:19:15;8.27;;;2.67;;
21501;SDS011;27639;48.674;9.242;2024-02-21T04:21:41;7.60;;;2.78;;
21501;SDS011;27639;48.674;9.242;2024-02-21T04:24:07;8.32;;;2.83;;
21501;SDS011;27639;48.674;9.242;2024-02-21T04:26:32;5.55;;;2.53;;
21501;SDS011;27639;48.674;9.242;2024-02-21T04:28:59;8.85;;;2.72;;
21501;SDS011;27639;48.674;9.242;2024-02-21T04:31:24;6.75;;;3.03;;
21501;SDS011;27639;48.674;9.242;2024-02-21T04:33:51;6.13;;;2.35;;
21501;SDS011;27639;48.674;9.242;2024-02-21T04:36:16;9.40;;;2.90;;
21501;SDS011;27639;48.674;9.242;2024-02-21T04:38:42;8.27;;;3.10;;
21501;SDS011;27639;48.674;9.242;2024-02-21T04:41:08;6.90;;;2.65;;
21501;SDS011;27639;48.674;9.242;2024-02-21T04:43:33;6.60;;;2.25;;
21501;SDS011;27639;48.674;9.242;2024-02-21T04:45:59;5.88;;;2.38;;
21501;SDS011;27639;48.674;9.242;2024-02-21T04:48:25;6.63;;;2.58;;
21501;SDS011;27639;48.674;9.242;2024-02-21T04:50:51;5.72;;;2.55;;
21501;SDS011;27639;48.674;9.242;2024-02-21T04:53:16;6.03;;;2.42;;
21501;SDS011;27639;48.674;9.242;2024-02-21T04:55:42;5.18;;;2.22;;
21501;SDS011;27639;48.674;9.242;2024-02-21T04:58:08;7.15;;;2.80;;
21501;SDS011;27639;48.674;9.242;2024-02-21T05:00:33;8.55;;;2.47;;
21501;SDS011;27639;48.674;9.242;2024-02-21T05:02:59;7.82;;;2.72;;
21501;SDS011;27639;48.674;9.242;2024-02-21T05:05:24;7.38;;;3.15;;
21501;SDS011;27639;48.674;9.242;2024-02-21T05:07:50;5.43;;;2.33;;
21501;SDS011;27639;48.674;9.242;2024-02-21T05:10:15;7.25;;;2.65;;
21501;SDS011;27639;48.674;9.242;2024-02-21T05:12:42;7.32;;;2.40;;
21501;SDS011;27639;48.674;9.242;2024-02-21T05:15:08;8.35;;;2.95;;
21501;SDS011;27639;48.674;9.242;2024-02-21T05:17:33;7.20;;;2.50;;
21501;SDS011;27639;48.674;9.242;2024-02-21T05:19:59;8.20;;;3.08;;
21501;SDS011;27639;48.674;9.242;2024-02-21T05:22:24;6.10;;;2.53;;
21501;SDS011;27639;48.674;9.242;2024-02-21T05:24:50;5.72;;;2.75;;
21501;SDS011;27639;48.674;9.242;2024-02-21T05:27:15;8.02;;;2.92;;
21501;SDS011;27639;48.674;9.242;2024-02-21T05:29:41;7.43;;;2.85;;
21501;SDS011;27639;48.674;9.242;2024-02-21T05:32:07;7.13;;;2.60;;
21501;SDS011;27639;48.674;9.242;2024-02-21T05:34:32;6.53;;;2.80;;
21501;SDS011;27639;48.674;9.242;2024-02-21T05:36:58;6.72;;;2.70;;
21501;SDS011;27639;48.674;9.242;2024-02-21T05:39:25;9.13;;;2.80;;
21501;SDS011;27639;48.674;9.242;2024-02-21T05:41:50;8.25;;;4.03;;
21501;SDS011;27639;48.674;9.242;2024-02-21T05:44:16;9.52;;;3.53;;
21501;SDS011;27639;48.674;9.242;2024-02-21T05:46:42;6.63;;;3.30;;
21501;SDS011;27639;48.674;9.242;2024-02-21T05:49:08;6.47;;;3.65;;
21501;SDS011;27639;48.674;9.242;2024-02-21T05:51:34;7.80;;;3.40;;
21501;SDS011;27639;48.674;9.242;2024-02-21T05:54:00;7.38;;;3.20;;
21501;SDS011;27639;48.674;9.242;2024-02-21T05:56:26;13.65;;;3.53;;
21501;SDS011;27639;48.674;9.242;2024-02-21T05:58:51;9.23;;;3.40;;
21501;SDS011;27639;48.674;9.242;2024-02-21T06:01:17;8.15;;;3.40;;
21501;SDS011;27639;48.674;9.242;2024-02-21T06:03:43;8.93;;;3.60;;
21501;SDS011;27639;48.674;9.242;2024-02-21T06:06:09;10.00;;;4.00;;
21501;SDS011;27639;48.674;9.242;2024-02-21T06:08:34;7.97;;;3.45;;
21501;SDS011;27639;48.674;9.242;2024-02-21T06:11:00;7.10;;;3.55;;
21501;SDS011;27639;48.674;9.242;2024-02-21T06:13:25;7.80;;;3.95;;
21501;SDS011;27639;48.674;9.242;2024-02-21T06:15:51;6.97;;;3.13;;
21501;SDS011;27639;48.674;9.242;2024-02-21T06:18:17;8.88;;;3.10;;
21501;SDS011;27639;48.674;9.242;2024-02-21T06:20:43;7.47;;;3.05;;
21501;SDS011;27639;48.674;9.242;2024-02-21T06:23:09;10.10;;;3.70;;
21501;SDS011;27639;48.674;9.242;2024-02-21T06:25:35;11.10;;;3.25;;
21501;SDS011;27639;48.674;9.242;2024-02-21T06:28:00;7.40;;;2.67;;
21501;SDS011;27639;48.674;9.242;2024-02-21T06:30:26;6.78;;;3.28;;
21501;SDS011;27639;48.674;9.242;2024-02-21T06:32:52;8.02;;;3.65;;
21501;SDS011;27639;48.674;9.242;2024-02-21T06:35:20;7.43;;;3.60;;
21501;SDS011;27639;48.674;9.242;2024-02-21T06:37:46;8.30;;;2.95;;
21501;SDS011;27639;48.674;9.242;2024-02-21T06:40:16;9.95;;;3.40;;
21501;SDS011;27639;48.674;9.242;2024-02-21T06:42:46;7.93;;;3.30;;
21501;SDS011;27639;48.674;9.242;2024-02-21T06:45:11;9.98;;;3.55;;
21501;SDS011;27639;48.674;9.242;2024-02-21T06:47:37;7.43;;;2.97;;
21501;SDS011;27639;48.674;9.242;2024-02-21T06:50:02;5.32;;;2.72;;
21501;SDS011;27639;48.674;9.242;2024-02-21T06:52:28;7.88;;;2.90;;
21501;SDS011;27639;48.674;9.242;2024-02-21T06:54:54;6.50;;;2.58;;
21501;SDS011;27639;48.674;9.242;2024-02-21T06:57:19;5.45;;;3.00;;
21501;SDS011;27639;48.674;9.242;2024-02-21T06:59:45;10.55;;;6.05;;
21501;SDS011;27639;48.674;9.242;2024-02-21T07:02:10;12.48;;;5.65;;
21501;SDS011;27639;48.674;9.242;2024-02-21T07:04:36;14.95;;;7.10;;
21501;SDS011;27639;48.674;9.242;2024-02-21T07:07:01;10.23;;;5.28;;
21501;SDS011;27639;48.674;9.242;2024-02-21T07:09:27;11.98;;;6.72;;
21501;SDS011;27639;48.674;9.242;2024-02-21T07:11:56;12.40;;;7.30;;
21501;SDS011;27639;48.674;9.242;2024-02-21T07:14:22;14.20;;;6.85;;
21501;SDS011;27639;48.674;9.242;2024-02-21T07:16:48;14.00;;;6.82;;
21501;SDS011;27639;48.674;9.242;2024-02-21T07:19:13;8.02;;;4.15;;
21501;SDS011;27639;48.674;9.242;2024-02-21T07:21:39;10.77;;;4.70;;
21501;SDS011;27639;48.674;9.242;2024-02-21T07:24:07;8.57;;;4.53;;
21501;SDS011;27639;48.674;9.242;2024-02-21T07:26:32;9.07;;;3.85;;
21501;SDS011;27639;48.674;9.242;2024-02-21T07:28:58;8.32;;;3.38;;
21501;SDS011;27639;48.674;9.242;2024-02-21T07:31:24;9.27;;;3.50;;
21501;SDS011;27639;48.674;9.242;2024-02-21T07:33:49;9.10;;;3.53;;
21501;SDS011;27639;48.674;9.242;2024-02-21T07:36:15;6.60;;;2.60;;
21501;SDS011;27639;48.674;9.242;2024-02-21T07:38:48;4.68;;;2.35;;
21501;SDS011;27639;48.674;9.242;2024-02-21T07:41:14;6.68;;;3.08;;
21501;SDS011;27639;48.674;9.242;2024-02-21T07:43:40;9.38;;;2.80;;
21501;SDS011;27639;48.674;9.242;2024-02-21T07:46:05;6.53;;;2.83;;
21501;SDS011;27639;48.674;9.242;2024-02-21T07:48:31;5.55;;;2.50;;
21501;SDS011;27639;48.674;9.242;2024-02-21T07:50:56;7.30;;;2.58;;
21501;SDS011;27639;48.674;9.242;2024-02-21T07:53:22;6.97;;;2.60;;
21501;SDS011;27639;48.674;9.242;2024-02-21T07:55:47;6.97;;;2.90;;
21501;SDS011;27639;48.674;9.242;2024-02-21T07:58:13;8.90;;;3.17;;
21501;SDS011;27639;48.674;9.242;2024-02-21T08:00:38;8.20;;;3.60;;
21501;SDS011;27639;48.674;9.242;2024-02-21T08:03:04;7.50;;;3.08;;
21501;SDS011;27639;48.674;9.242;2024-02-21T08:05:29;7.75;;;3.78;;
21501;SDS011;27639;48.674;9.242;2024-02-21T08:07:55;5.88;;;3.03;;
21501;SDS011;27639;48.674;9.242;2024-02-21T08:10:20;9.55;;;3.67;;
21501;SDS011;27639;48.674;9.242;2024-02-21T08:12:46;9.13;;;3.70;;
21501;SDS011;27639;48.674;9.242;2024-02-21T08:15:11;10.50;;;3.20;;
21501;SDS011;27639;48.674;9.242;2024-02-21T08:17:37;8.20;;;3.35;;
21501;SDS011;27639;48.674;9.242;2024-02-21T08:20:06;7.38;;;2.80;;
21501;SDS011;27639;48.674;9.242;2024-02-21T08:22:32;7.50;;;3.22;;
21501;SDS011;27639;48.674;9.242;2024-02-21T08:24:57;6.50;;;2.95;;
21501;SDS011;27639;48.674;9.242;2024-02-21T08:27:23;5.65;;;2.42;;
21501;SDS011;27639;48.674;9.242;2024-02-21T08:29:48;7.53;;;3.22;;
21501;SDS011;27639;48.674;9.242;2024-02-21T08:32:14;7.53;;;2.72;;
21501;SDS011;27639;48.674;9.242;2024-02-21T08:34:40;8.80;;;3.00;;
21501;SDS011;27639;48.674;9.242;2024-02-21T08:37:05;7.82;;;2.90;;
21501;SDS011;27639;48.674;9.242;2024-02-21T08:39:31;7.22;;;3.20;;
21501;SDS011;27639;48.674;9.242;2024-02-21T08:41:56;7.95;;;3.53;;
21501;SDS011;27639;48.674;9.242;2024-02-21T08:44:22;7.63;;;3.38;;
21501;SDS011;27639;48.674;9.242;2024-02-21T08:46:51;6.72;;;2.63;;
21501;SDS011;27639;48.674;9.242;2024-02-21T08:49:16;6.68;;;2.80;;
21501;SDS011;27639;48.674;9.242;2024-02-21T08:51:42;6.28;;;2.60;;
21501;SDS011;27639;48.674;9.242;2024-02-21T08:54:08;7.75;;;2.80;;
21501;SDS011;27639;48.674;9.242;2024-02-21T08:56:33;6.47;;;2.45;;
21501;SDS011;27639;48.674;9.242;2024-02-21T08:59:00;8.52;;;2.53;;
21501;SDS011;27639;48.674;9.242;2024-02-21T09:01:26;4.57;;;2.20;;
21501;SDS011;27639;48.674;9.242;2024-02-21T09:03:51;6.40;;;2.38;;
21501;SDS011;27639;48.674;9.242;2024-02-21T09:06:18;7.10;;;2.50;;
21501;SDS011;27639;48.674;9.242;2024-02-21T09:08:45;6.43;;;2.17;;
21501;SDS011;27639;48.674;9.242;2024-02-21T09:11:11;5.32;;;1.70;;
21501;SDS011;27639;48.674;9.242;2024-02-21T09:13:36;6.40;;;2.22;;
21501;SDS011;27639;48.674;9.242;2024-02-21T09:16:02;5.63;;;2.17;;
21501;SDS011;27639;48.674;9.242;2024-02-21T09:18:28;7.80;;;2.35;;
21501;SDS011;27639;48.674;9.242;2024-02-21T09:20:54;7.20;;;2.47;;
21501;SDS011;27639;48.674;9.242;2024-02-21T09:23:20;8.15;;;2.17;;
21501;SDS011;27639;48.674;9.242;2024-02-21T09:25:49;5.20;;;2.15;;
21501;SDS011;27639;48.674;9.242;2024-02-21T09:28:14;7.03;;;2.13;;
21501;SDS011;27639;48.674;9.242;2024-02-21T09:30:40;6.38;;;2.53;;
21501;SDS011;27639;48.674;9.242;2024-02-21T09:33:06;6.75;;;2.35;;
21501;SDS011;27639;48.674;9.242;2024-02-21T09:35:31;7.00;;;1.98;;
21501;SDS011;27639;48.674;9.242;2024-02-21T09:37:58;6.47;;;2.08;;
21501;SDS011;27639;48.674;9.242;2024-02-21T09:40:24;6.05;;;2.22;;
21501;SDS011;27639;48.674;9.242;2024-02-21T09:42:50;5.82;;;1.75;;
21501;SDS011;27639;48.674;9.242;2024-02-21T09:45:27;7.18;;;2.35;;
21501;SDS011;27639;48.674;9.242;2024-02-21T09:50:44;7.68;;;1.90;;
21501;SDS011;27639;48.674;9.242;2024-02-21T09:53:12;6.57;;;1.73;;
21501;SDS011;27639;48.674;9.242;2024-02-21T09:55:41;5.18;;;1.70;;
21501;SDS011;27639;48.674;9.242;2024-02-21T09:58:08;6.35;;;1.67;;
21501;SDS011;27639;48.674;9.242;2024-02-21T10:00:35;4.60;;;1.80;;
21501;SDS011;27639;48.674;9.242;2024-02-21T10:03:01;5.78;;;1.65;;
21501;SDS011;27639;48.674;9.242;2024-02-21T10:05:32;6.88;;;1.77;;
21501;SDS011;27639;48.674;9.242;2024-02-21T10:07:59;4.88;;;1.90;;
21501;SDS011;27639;48.674;9.242;2024-02-21T10:10:24;5.30;;;1.98;;
21501;SDS011;27639;48.674;9.242;2024-02-21T10:12:52;4.80;;;1.80;;
21501;SDS011;27639;48.674;9.242;2024-02-21T10:15:21;6.82;;;1.67;;
21501;SDS011;27639;48.674;9.242;2024-02-21T10:17:57;5.40;;;1.90;;
21501;SDS011;27639;48.674;9.242;2024-02-21T10:20:24;6.65;;;2.13;;
21501;SDS011;27639;48.674;9.242;2024-02-21T10:22:59;6.22;;;1.70;;
21501;SDS011;27639;48.674;9.242;2024-02-21T10:25:33;5.57;;;1.70;;
21501;SDS011;27639;48.674;9.242;2024-02-21T10:27:59;5.97;;;2.03;;
21501;SDS011;27639;48.674;9.242;2024-02-21T10:30:24;6.93;;;1.70;;
21501;SDS011;27639;48.674;9.242;2024-02-21T10:32:50;4.47;;;1.60;;
21501;SDS011;27639;48.674;9.242;2024-02-21T10:35:30;6.00;;;2.00;;
21501;SDS011;27639;48.674;9.242;2024-02-21T10:37:59;5.65;;;1.77;;
21501;SDS011;27639;48.674;9.242;2024-02-21T10:40:26;3.35;;;1.40;;
21501;SDS011;27639;48.674;9.242;2024-02-21T10:42:56;5.05;;;1.67;;
21501;SDS011;27639;48.674;9.242;2024-02-21T10:45:30;3.65;;;1.75;;
21501;SDS011;27639;48.674;9.242;2024-02-21T10:48:08;6.55;;;1.92;;
21501;SDS011;27639;48.674;9.242;2024-02-21T10:50:42;5.25;;;1.90;;
21501;SDS011;27639;48.674;9.242;2024-02-21T10:56:22;3.40;;;1.33;;
21501;SDS011;27639;48.674;9.242;2024-02-21T10:58:53;5.00;;;1.35;;
21501;SDS011;27639;48.674;9.242;2024-02-21T11:01:20;6.50;;;1.83;;
21501;SDS011;27639;48.674;9.242;2024-02-21T11:03:46;4.18;;;1.38;;
21501;SDS011;27639;48.674;9.242;2024-02-21T11:06:14;5.70;;;1.23;;
21501;SDS011;27639;48.674;9.242;2024-02-21T11:08:42;4.50;;;1.20;;
21501;SDS011;27639;48.674;9.242;2024-02-21T11:11:07;5.47;;;1.58;;
21501;SDS011;27639;48.674;9.242;2024-02-21T11:13:36;5.68;;;1.40;;
21501;SDS011;27639;48.674;9.242;2024-02-21T11:16:12;4.07;;;1.40;;
21501;SDS011;27639;48.674;9.242;2024-02-21T11:18:46;4.43;;;1.90;;
21501;SDS011;27639;48.674;9.242;2024-02-21T11:21:12;5.47;;;1.30;;
21501;SDS011;27639;48.674;9.242;2024-02-21T11:23:37;5.15;;;1.38;;
21501;SDS011;27639;48.674;9.242;2024-02-21T11:26:17;3.75;;;1.40;;
21501;SDS011;27639;48.674;9.242;2024-02-21T11:28:55;4.67;;;1.67;;
21501;SDS011;27639;48.674;9.242;2024-02-21T11:31:25;6.13;;;2.00;;
21501;SDS011;27639;48.674;9.242;2024-02-21T11:33:54;3.92;;;1.25;;
21501;SDS011;27639;48.674;9.242;2024-02-21T11:36:26;5.18;;;1.58;;
21501;SDS011;27639;48.674;9.242;2024-02-21T11:38:53;4.40;;;1.52;;
21501;SDS011;27639;48.674;9.242;2024-02-21T11:41:19;4.22;;;1.40;;
21501;SDS011;27639;48.674;9.242;2024-02-21T11:43:46;4.38;;;1.40;;
21501;SDS011;27639;48.674;9.242;2024-02-21T11:46:13;5.85;;;1.80;;
21501;SDS011;27639;48.674;9.242;2024-02-21T11:48:39;3.75;;;1.45;;
21501;SDS011;27639;48.674;9.242;2024-02-21T11:51:06;4.00;;;1.10;;
21501;SDS011;27639;48.674;9.242;2024-02-21T11:53:31;3.92;;;1.17;;
21501;SDS011;27639;48.674;9.242;2024-02-21T11:55:58;3.80;;;1.20;;
21501;SDS011;27639;48.674;9.242;2024-02-21T11:58:24;3.47;;;1.08;;
21501;SDS011;27639;48.674;9.242;2024-02-21T12:00:51;5.55;;;1.70;;
21501;SDS011;27639;48.674;9.242;2024-02-21T12:03:17;3.10;;;1.45;;
21501;SDS011;27639;48.674;9.242;2024-02-21T12:05:42;3.47;;;1.30;;
21501;SDS011;27639;48.674;9.242;2024-02-21T12:08:08;5.07;;;1.38;;
21501;SDS011;27639;48.674;9.242;2024-02-21T12:10:35;4.40;;;1.52;;
21501;SDS011;27639;48.674;9.242;2024-02-21T12:13:10;4.90;;;1.60;;
21501;SDS011;27639;48.674;9.242;2024-02-21T12:15:38;2.90;;;1.00;;
21501;SDS011;27639;48.674;9.242;2024-02-21T12:18:05;3.72;;;1.20;;
21501;SDS011;27639;48.674;9.242;2024-02-21T12:20:30;4.10;;;1.30;;
21501;SDS011;27639;48.674;9.242;2024-02-21T12:22:59;4.85;;;1.10;;
21501;SDS011;27639;48.674;9.242;2024-02-21T12:25:25;4.78;;;1.10;;
21501;SDS011;27639;48.674;9.242;2024-02-21T12:27:52;3.45;;;1.10;;
21501;SDS011;27639;48.674;9.242;2024-02-21T12:30:18;3.22;;;1.20;;
21501;SDS011;27639;48.674;9.242;2024-02-21T12:32:44;4.07;;;1.25;;
21501;SDS011;27639;48.674;9.242;2024-02-21T12:35:11;3.85;;;1.27;;
21501;SDS011;27639;48.674;9.242;2024-02-21T12:37:36;3.33;;;1.27;;
21501;SDS011;27639;48.674;9.242;2024-02-21T12:40:05;4.07;;;1.35;;
21501;SDS011;27639;48.674;9.242;2024-02-21T12:42:32;3.35;;;0.90;;
21501;SDS011;27639;48.674;9.242;2024-02-21T12:45:01;3.55;;;1.17;;
21501;SDS011;27639;48.674;9.242;2024-02-21T12:47:28;3.53;;;1.33;;
21501;SDS011;27639;48.674;9.242;2024-02-21T12:49:53;2.97;;;1.05;;
21501;SDS011;27639;48.674;9.242;2024-02-21T12:52:19;3.50;;;1.10;;
21501;SDS011;27639;48.674;9.242;2024-02-21T12:54:45;2.97;;;1.10;;
21501;SDS011;27639;48.674;9.242;2024-02-21T12:57:10;3.30;;;1.20;;
21501;SDS011;27639;48.674;9.242;2024-02-21T12:59:36;2.85;;;1.00;;
21501;SDS011;27639;48.674;9.242;2024-02-21T13:02:02;4.13;;;1.45;;
21501;SDS011;27639;48.674;9.242;2024-02-21T13:04:27;4.47;;;1.15;;
21501;SDS011;27639;48.674;9.242;2024-02-21T13:06:53;2.85;;;0.90;;
21501;SDS011;27639;48.674;9.242;2024-02-21T13:09:20;4.60;;;1.20;;
21501;SDS011;27639;48.674;9.242;2024-02-21T13:11:46;4.00;;;1.40;;
21501;SDS011;27639;48.674;9.242;2024-02-21T13:14:12;3.22;;;1.05;;
21501;SDS011;27639;48.674;9.242;2024-02-21T13:16:37;4.50;;;1.35;;
21501;SDS011;27639;48.674;9.242;2024-02-21T13:19:06;3.75;;;1.10;;
21501;SDS011;27639;48.674;9.242;2024-02-21T13:21:35;3.95;;;1.30;;
21501;SDS011;27639;48.674;9.242;2024-02-21T13:24:01;4.60;;;1.38;;
21501;SDS011;27639;48.674;9.242;2024-02-21T13:26:27;3.05;;;1.17;;
21501;SDS011;27639;48.674;9.242;2024-02-21T13:28:52;4.22;;;1.02;;
21501;SDS011;27639;48.674;9.242;2024-02-21T13:31:18;3.33;;;1.30;;
21501;SDS011;27639;48.674;9.242;2024-02-21T13:33:44;2.65;;;1.10;;
21501;SDS011;27639;48.674;9.242;2024-02-21T13:36:10;2.85;;;1.10;;
21501;SDS011;27639;48.674;9.242;2024-02-21T13:38:36;3.65;;;1.40;;
21501;SDS011;27639;48.674;9.242;2024-02-21T13:41:03;3.33;;;1.10;;
21501;SDS011;27639;48.674;9.242;2024-02-21T13:43:33;3.60;;;1.33;;
21501;SDS011;27639;48.674;9.242;2024-02-21T13:46:00;3.30;;;1.20;;
21501;SDS011;27639;48.674;9.242;2024-02-21T13:48:27;3.10;;;1.10;;
21501;SDS011;27639;48.674;9.242;2024-02-21T13:50:54;2.92;;;1.10;;
21501;SDS011;27639;48.674;9.242;2024-02-21T13:53:19;3.53;;;1.20;;
21501;SDS011;27639;48.674;9.242;2024-02-21T13:55:46;5.18;;;1.00;;
21501;SDS011;27639;48.674;9.242;2024-02-21T13:58:11;3.38;;;0.98;;
21501;SDS011;27639;48.674;9.242;2024-02-21T14:00:37;3.42;;;1.40;;
21501;SDS011;27639;48.674;9.242;2024-02-21T14:03:03;3.80;;;1.20;;
21501;SDS011;27639;48.674;9.242;2024-02-21T14:05:29;2.40;;;1.17;;
21501;SDS011;27639;48.674;9.242;2024-02-21T14:07:55;3.22;;;1.38;;
21501;SDS011;27639;48.674;9.242;2024-02-21T14:10:21;2.60;;;1.10;;
21501;SDS011;27639;48.674;9.242;2024-02-21T14:12:47;3.60;;;1.20;;
21501;SDS011;27639;48.674;9.242;2024-02-21T14:15:16;3.45;;;1.05;;
21501;SDS011;27639;48.674;9.242;2024-02-21T14:17:42;3.08;;;1.10;;
21501;SDS011;27639;48.674;9.242;2024-02-21T14:20:08;3.45;;;0.80;;
21501;SDS011;27639;48.674;9.242;2024-02-21T14:22:34;4.68;;;1.27;;
21501;SDS011;27639;48.674;9.242;2024-02-21T14:25:02;3.42;;;1.10;;
21501;SDS011;27639;48.674;9.242;2024-02-21T14:27:30;2.65;;;1.05;;
21501;SDS011;27639;48.674;9.242;2024-02-21T14:29:56;2.95;;;1.10;;
21501;SDS011;27639;48.674;9.242;2024-02-21T14:32:21;5.30;;;1.40;;
21501;SDS011;27639;48.674;9.242;2024-02-21T14:34:47;3.20;;;1.10;;
21501;SDS011;27639;48.674;9.242;2024-02-21T14:37:14;3.35;;;1.35;;
21501;SDS011;27639;48.674;9.242;2024-02-21T14:39:40;3.90;;;1.65;;
21501;SDS011;27639;48.674;9.242;2024-02-21T14:42:06;3.20;;;1.15;;
21501;SDS011;27639;48.674;9.242;2024-02-21T14:44:34;3.58;;;1.17;;
21501;SDS011;27639;48.674;9.242;2024-02-21T14:47:00;3.28;;;1.48;;
21501;SDS011;27639;48.674;9.242;2024-02-21T14:49:26;4.07;;;1.23;;